Time;durP1;ratioP1;P1;durP2;ratioP2;P2;SDS_P1;SDS_P2;PMS_P1;PMS_P2;Temp;Humidity;BMP_temperature;BMP_pressure;BME280_temperature;BME280_humidity;BME280_pressure;Samples;Min_cycle;Max_cycle;Signal;HPM_P1;HPM_P2
2023/06/11 00:01:17;;;;;;;6.10;1.77;;;17.10;99.90;;;;;;5070068;28;20040;-67
2023/06/11 00:03:52;;;;;;;2.78;1.90;;;17.10;99.90;;;;;;5070796;28;20083;-67
2023/06/11 00:06:20;;;;;;;4.43;1.83;;;17.00;99.90;;;;;;5053583;28;20049;-67
2023/06/11 00:08:53;;;;;;;2.88;1.73;;;17.00;99.90;;;;;;5070202;28;20102;-66
2023/06/11 00:11:20;;;;;;;3.72;2.10;;;17.00;99.90;;;;;;5070718;28;20536;-66
2023/06/11 00:13:46;;;;;;;3.60;1.67;;;17.00;99.90;;;;;;5069760;28;20136;-66
2023/06/11 00:16:15;;;;;;;4.22;1.67;;;16.90;99.90;;;;;;5071240;28;20123;-66
2023/06/11 00:18:42;;;;;;;3.40;1.95;;;16.90;99.90;;;;;;5069128;28;20036;-66
2023/06/11 00:21:09;;;;;;;4.55;2.05;;;16.90;99.90;;;;;;5069637;28;20124;-66
2023/06/11 00:23:36;;;;;;;3.90;2.13;;;16.90;99.90;;;;;;5071107;28;20048;-66
2023/06/11 00:26:07;;;;;;;6.00;1.80;;;16.90;99.90;;;;;;5067811;28;20496;-66
2023/06/11 00:28:33;;;;;;;2.85;1.58;;;16.90;99.90;;;;;;5069877;28;20442;-66
2023/06/11 00:31:00;;;;;;;3.67;2.35;;;16.80;99.90;;;;;;5069765;28;20051;-66
2023/06/11 00:33:27;;;;;;;3.30;1.83;;;16.80;99.90;;;;;;5068738;28;20045;-66
2023/06/11 00:35:53;;;;;;;6.72;2.10;;;16.70;99.90;;;;;;5069517;28;20040;-66
2023/06/11 00:38:20;;;;;;;5.47;2.10;;;16.70;99.90;;;;;;5070915;28;20090;-66
2023/06/11 00:40:47;;;;;;;4.00;1.83;;;16.60;99.90;;;;;;5070173;28;20040;-66
2023/06/11 00:43:12;;;;;;;3.53;2.25;;;16.60;99.90;;;;;;5052760;28;20036;-66
2023/06/11 00:45:38;;;;;;;2.42;1.45;;;16.50;99.90;;;;;;5068960;28;20039;-66
2023/06/11 00:48:05;;;;;;;3.60;1.90;;;16.50;99.90;;;;;;5069069;28;20431;-66
2023/06/11 00:50:44;;;;;;;3.22;2.17;;;16.40;99.90;;;;;;5069091;28;20076;-66
2023/06/11 00:53:11;;;;;;;4.45;2.15;;;16.50;99.90;;;;;;5068750;28;20094;-66
2023/06/11 00:55:37;;;;;;;2.65;1.55;;;16.40;99.90;;;;;;5070872;28;20044;-66
2023/06/11 00:58:04;;;;;;;2.63;1.30;;;16.50;99.90;;;;;;5070464;28;20041;-66
2023/06/11 01:00:30;;;;;;;2.90;1.88;;;16.40;99.90;;;;;;5069868;28;20033;-66
2023/06/11 01:03:07;;;;;;;4.55;2.10;;;16.50;99.90;;;;;;5070059;28;20040;-66
2023/06/11 01:05:43;;;;;;;6.90;2.58;;;16.40;99.90;;;;;;5069248;28;20382;-66
2023/06/11 01:08:19;;;;;;;3.78;1.95;;;16.40;99.90;;;;;;5069714;28;20397;-66
2023/06/11 01:10:47;;;;;;;4.82;1.95;;;16.40;99.90;;;;;;5070540;28;20447;-66
2023/06/11 01:13:13;;;;;;;2.83;1.55;;;16.40;99.90;;;;;;5052165;28;20187;-66
2023/06/11 01:15:39;;;;;;;3.80;1.95;;;16.40;99.90;;;;;;5068496;28;20040;-65
2023/06/11 01:18:19;;;;;;;2.47;1.80;;;16.30;99.90;;;;;;5068794;28;20829;-66
2023/06/11 01:20:50;;;;;;;;;;;16.30;99.90;;;;;;5068315;28;20040;-66
2023/06/11 01:23:20;;;;;;;3.40;1.92;;;16.40;99.90;;;;;;5069966;28;19995;-66
2023/06/11 01:26:12;;;;;;;3.65;2.28;;;16.40;99.90;;;;;;5068719;28;20148;-66
2023/06/11 01:28:39;;;;;;;3.63;2.10;;;16.40;99.90;;;;;;5067940;28;20044;-66
2023/06/11 01:31:11;;;;;;;4.13;2.05;;;16.40;99.90;;;;;;5068566;28;20047;-67
2023/06/11 01:33:37;;;;;;;8.18;2.78;;;16.30;99.90;;;;;;5068260;28;20572;-67
2023/06/11 01:36:05;;;;;;;3.15;2.20;;;16.30;99.90;;;;;;5068049;28;20127;-67
2023/06/11 01:38:34;;;;;;;4.80;2.45;;;16.30;99.90;;;;;;5069142;28;20044;-67
2023/06/11 01:41:03;;;;;;;3.90;2.17;;;16.30;99.90;;;;;;5068226;28;20043;-67
2023/06/11 01:43:29;;;;;;;5.20;2.60;;;16.30;99.90;;;;;;5051131;28;20248;-67
2023/06/11 01:45:56;;;;;;;4.68;2.03;;;16.30;99.90;;;;;;5069432;28;20653;-67
2023/06/11 01:48:22;;;;;;;3.67;1.90;;;16.40;99.90;;;;;;5067988;28;20040;-67
2023/06/11 01:50:47;;;;;;;4.93;2.55;;;16.40;99.90;;;;;;5050510;28;20049;-67
2023/06/11 01:53:14;;;;;;;6.60;2.72;;;16.40;99.90;;;;;;5069053;28;20040;-66
2023/06/11 01:55:40;;;;;;;6.50;2.55;;;16.40;99.90;;;;;;5068471;28;20496;-67
2023/06/11 01:58:05;;;;;;;3.58;2.45;;;16.40;99.90;;;;;;5051451;28;20504;-67
2023/06/11 02:00:31;;;;;;;4.32;2.20;;;16.40;99.90;;;;;;5068003;28;20082;-67
2023/06/11 02:02:59;;;;;;;4.28;2.90;;;16.40;99.90;;;;;;5068954;28;20119;-67
2023/06/11 02:05:25;;;;;;;3.60;2.03;;;16.40;99.90;;;;;;5067738;28;20044;-67
2023/06/11 02:07:51;;;;;;;3.65;2.45;;;16.40;99.90;;;;;;5068160;28;20044;-67
2023/06/11 02:10:17;;;;;;;5.63;2.25;;;16.40;99.90;;;;;;5067203;28;20485;-67
2023/06/11 02:12:42;;;;;;;3.42;2.28;;;16.40;99.90;;;;;;5067675;28;20049;-67
2023/06/11 02:15:08;;;;;;;3.45;2.38;;;16.40;99.90;;;;;;5068882;28;20094;-67
2023/06/11 02:17:34;;;;;;;3.95;1.70;;;16.40;99.90;;;;;;5068657;28;20047;-67
2023/06/11 02:20:00;;;;;;;3.80;2.42;;;16.30;99.90;;;;;;5067587;28;20123;-67
2023/06/11 02:22:26;;;;;;;4.05;2.75;;;16.40;99.90;;;;;;5067518;28;20071;-67
2023/06/11 02:24:52;;;;;;;6.28;2.72;;;16.30;99.90;;;;;;5068139;28;20040;-66
2023/06/11 02:27:18;;;;;;;3.88;2.20;;;16.30;99.90;;;;;;5067481;28;20127;-66
2023/06/11 02:29:44;;;;;;;2.55;2.30;;;16.30;99.90;;;;;;5067790;28;20039;-66
2023/06/11 02:32:10;;;;;;;6.28;2.80;;;16.30;99.90;;;;;;5067038;28;20580;-67
2023/06/11 02:34:36;;;;;;;3.25;2.22;;;16.30;99.90;;;;;;5067541;28;20401;-67
2023/06/11 02:37:02;;;;;;;5.30;3.20;;;16.30;99.90;;;;;;5067442;28;20033;-66
2023/06/11 02:39:28;;;;;;;4.32;2.40;;;16.30;99.90;;;;;;5068165;28;20040;-66
2023/06/11 02:41:53;;;;;;;6.10;2.78;;;16.30;99.90;;;;;;5067414;28;20048;-66
2023/06/11 02:44:21;;;;;;;5.15;2.33;;;16.30;99.90;;;;;;5050986;28;20040;-66
2023/06/11 02:46:47;;;;;;;3.80;2.65;;;16.30;99.90;;;;;;5067112;28;20421;-66
2023/06/11 02:49:13;;;;;;;2.78;1.92;;;16.30;99.90;;;;;;5069172;28;20114;-66
2023/06/11 02:51:38;;;;;;;5.15;3.03;;;16.30;99.90;;;;;;5053941;28;20067;-66
2023/06/11 02:54:04;;;;;;;3.88;2.03;;;16.30;99.90;;;;;;5054741;28;20041;-66
2023/06/11 02:56:30;;;;;;;4.43;2.70;;;16.20;99.90;;;;;;5071228;28;20067;-66
2023/06/11 02:58:56;;;;;;;3.42;2.47;;;16.30;99.90;;;;;;5070873;28;20032;-66
2023/06/11 03:01:22;;;;;;;6.00;3.33;;;16.20;99.90;;;;;;5071284;28;20033;-66
2023/06/11 03:03:48;;;;;;;4.38;2.50;;;16.20;99.90;;;;;;5054627;28;20127;-67
2023/06/11 03:06:13;;;;;;;4.45;2.80;;;16.20;99.90;;;;;;5071808;28;20559;-66
2023/06/11 03:08:39;;;;;;;4.30;2.72;;;16.20;99.90;;;;;;5054547;28;20036;-66
2023/06/11 03:11:05;;;;;;;4.57;2.55;;;16.20;99.90;;;;;;5072378;28;20072;-66
2023/06/11 03:13:31;;;;;;;5.45;2.47;;;16.20;99.90;;;;;;5071828;28;20097;-66
2023/06/11 03:15:57;;;;;;;4.57;2.80;;;16.20;99.90;;;;;;5072413;28;20110;-66
2023/06/11 03:18:23;;;;;;;3.45;2.40;;;16.10;99.90;;;;;;5071205;28;20572;-65
2023/06/11 03:20:48;;;;;;;4.95;2.90;;;16.10;99.90;;;;;;5071896;28;20127;-66
2023/06/11 03:23:15;;;;;;;3.95;2.33;;;16.10;99.90;;;;;;5070966;28;20044;-66
2023/06/11 03:25:42;;;;;;;6.05;2.85;;;16.10;99.90;;;;;;5070993;28;20130;-66
2023/06/11 03:28:08;;;;;;;6.10;2.90;;;16.10;99.90;;;;;;5070284;28;20123;-66
2023/06/11 03:30:34;;;;;;;4.88;2.63;;;16.10;99.90;;;;;;5071833;28;20087;-66
2023/06/11 03:32:59;;;;;;;4.50;2.78;;;16.10;99.90;;;;;;5072095;28;20079;-66
2023/06/11 03:35:25;;;;;;;9.25;3.40;;;16.10;99.90;;;;;;5069870;28;20497;-66
2023/06/11 03:37:51;;;;;;;4.53;2.60;;;16.20;99.90;;;;;;5070473;28;20094;-66
2023/06/11 03:40:18;;;;;;;5.97;2.63;;;16.20;99.90;;;;;;5071970;28;20107;-66
2023/06/11 03:42:44;;;;;;;6.50;3.13;;;16.20;99.90;;;;;;5070250;28;20107;-66
2023/06/11 03:45:10;;;;;;;3.65;2.30;;;16.20;99.90;;;;;;5054069;28;20066;-66
2023/06/11 03:47:36;;;;;;;3.95;2.63;;;16.20;99.90;;;;;;5070928;28;20055;-66
2023/06/11 03:50:04;;;;;;;6.50;2.85;;;16.20;99.90;;;;;;5070125;28;20059;-66
2023/06/11 03:52:30;;;;;;;5.72;3.28;;;16.20;99.90;;;;;;5071920;28;20123;-66
2023/06/11 03:54:59;;;;;;;3.63;2.53;;;16.20;99.90;;;;;;5069541;28;20127;-66
2023/06/11 03:57:24;;;;;;;5.20;3.15;;;16.20;99.90;;;;;;5053696;28;20135;-66
2023/06/11 03:59:50;;;;;;;4.07;3.05;;;16.20;99.90;;;;;;5070081;28;20036;-66
2023/06/11 04:02:16;;;;;;;6.90;3.22;;;16.20;99.90;;;;;;5070753;28;20029;-66
2023/06/11 04:04:42;;;;;;;6.18;3.17;;;16.30;99.90;;;;;;5070213;28;20558;-66
2023/06/11 04:07:08;;;;;;;4.68;3.10;;;16.30;99.90;;;;;;5053537;28;20062;-66
2023/06/11 04:09:34;;;;;;;5.30;2.63;;;16.30;99.90;;;;;;5070822;28;20400;-66
2023/06/11 04:11:59;;;;;;;5.53;3.08;;;16.40;99.90;;;;;;5071473;28;20301;-66
2023/06/11 04:14:25;;;;;;;5.32;2.75;;;16.40;99.90;;;;;;5069842;28;20137;-66
2023/06/11 04:16:51;;;;;;;3.13;1.92;;;16.40;99.90;;;;;;5069552;28;20165;-66
2023/06/11 04:19:18;;;;;;;4.70;3.28;;;16.50;99.90;;;;;;5069745;28;20397;-66
2023/06/11 04:21:44;;;;;;;3.88;2.55;;;16.50;99.90;;;;;;5069752;28;20044;-66
2023/06/11 04:24:10;;;;;;;5.30;3.03;;;16.50;99.90;;;;;;5069498;28;20417;-66
2023/06/11 04:26:36;;;;;;;5.65;3.28;;;16.60;99.90;;;;;;5052932;28;20051;-65
2023/06/11 04:29:03;;;;;;;5.82;3.58;;;16.70;99.90;;;;;;5052852;28;20075;-66
2023/06/11 04:31:29;;;;;;;3.97;2.50;;;16.70;99.90;;;;;;5070547;28;20045;-66
2023/06/11 04:33:56;;;;;;;8.13;3.22;;;16.80;99.90;;;;;;5052904;28;20040;-66
2023/06/11 04:36:27;;;;;;;5.50;3.25;;;16.80;99.90;;;;;;5070939;28;20051;-66
2023/06/11 04:38:53;;;;;;;5.43;2.65;;;16.90;99.90;;;;;;5068961;28;20460;-66
2023/06/11 04:41:22;;;;;;;6.57;3.13;;;17.00;99.90;;;;;;5070816;28;20133;-66
2023/06/11 04:43:48;;;;;;;4.30;2.47;;;17.10;99.90;;;;;;5070386;28;20453;-66
2023/06/11 04:46:14;;;;;;;5.07;3.33;;;17.10;99.90;;;;;;5069145;28;20083;-66
2023/06/11 04:48:40;;;;;;;4.80;3.08;;;17.20;99.90;;;;;;5071571;28;20043;-66
2023/06/11 04:51:06;;;;;;;3.92;2.75;;;17.30;99.90;;;;;;5052457;28;20135;-66
2023/06/11 04:53:36;;;;;;;7.30;3.42;;;17.40;99.90;;;;;;5068356;28;20051;-66
2023/06/11 04:56:03;;;;;;;5.35;3.08;;;17.50;99.90;;;;;;5067819;28;20041;-66
2023/06/11 04:58:30;;;;;;;6.38;3.30;;;17.60;99.90;;;;;;5069986;28;20436;-66
2023/06/11 05:00:57;;;;;;;7.25;3.30;;;17.60;99.90;;;;;;5052323;28;20102;-66
2023/06/11 05:03:26;;;;;;;6.93;3.10;;;17.70;99.90;;;;;;5069144;28;20063;-66
2023/06/11 05:05:53;;;;;;;6.28;3.42;;;17.80;99.90;;;;;;5068574;28;20435;-66
2023/06/11 05:08:21;;;;;;;4.95;2.50;;;17.90;99.90;;;;;;5069228;28;20045;-66
2023/06/11 05:10:47;;;;;;;5.55;3.50;;;18.00;99.90;;;;;;5069952;28;20560;-66
2023/06/11 05:13:14;;;;;;;5.10;3.33;;;18.10;99.90;;;;;;5067486;28;20508;-66
2023/06/11 05:15:40;;;;;;;4.43;3.10;;;18.20;99.90;;;;;;5070218;28;20059;-65
2023/06/11 05:18:06;;;;;;;5.20;3.03;;;18.30;99.90;;;;;;5069011;28;20045;-66
2023/06/11 05:20:32;;;;;;;4.72;2.53;;;18.40;99.90;;;;;;5068248;28;20059;-66
2023/06/11 05:23:02;;;;;;;4.03;2.78;;;18.50;99.90;;;;;;5068691;28;20492;-65
2023/06/11 05:25:29;;;;;;;6.18;3.15;;;18.60;99.90;;;;;;5068528;28;20051;-66
2023/06/11 05:27:58;;;;;;;4.70;3.10;;;18.70;99.90;;;;;;5068217;28;20045;-66
2023/06/11 05:30:25;;;;;;;6.50;3.38;;;18.90;99.90;;;;;;5069956;28;20063;-66
2023/06/11 05:32:56;;;;;;;5.57;3.10;;;19.00;99.90;;;;;;5069009;28;20044;-66
2023/06/11 05:35:23;;;;;;;5.00;2.83;;;19.10;99.90;;;;;;5068349;28;20043;-65
2023/06/11 05:37:48;;;;;;;6.18;3.40;;;19.20;99.90;;;;;;5068189;28;20039;-65
2023/06/11 05:40:15;;;;;;;4.43;2.78;;;19.30;99.90;;;;;;5067736;28;20036;-65
2023/06/11 05:42:41;;;;;;;5.32;2.70;;;19.40;99.90;;;;;;5069752;28;20041;-64
2023/06/11 05:45:07;;;;;;;5.63;2.60;;;19.50;99.90;;;;;;5068176;28;20055;-65
2023/06/11 05:47:34;;;;;;;4.07;2.67;;;19.60;99.90;;;;;;5050824;28;20048;-65
2023/06/11 05:50:00;;;;;;;6.72;3.38;;;19.70;99.90;;;;;;5069444;28;20058;-65
2023/06/11 05:52:26;;;;;;;4.25;2.53;;;19.90;99.90;;;;;;5069649;28;20049;-67
2023/06/11 05:54:52;;;;;;;5.00;2.85;;;19.90;99.90;;;;;;5068127;28;20094;-65
2023/06/11 05:57:24;;;;;;;3.95;2.90;;;20.00;99.90;;;;;;5069982;28;20040;-66
2023/06/11 05:59:51;;;;;;;4.60;2.95;;;20.20;99.90;;;;;;5069729;28;20071;-67
2023/06/11 06:02:17;;;;;;;5.10;3.40;;;20.30;99.90;;;;;;5050882;28;20089;-66
2023/06/11 06:04:47;;;;;;;5.38;3.78;;;20.40;99.90;;;;;;5051068;28;20048;-67
2023/06/11 06:07:12;;;;;;;5.10;3.45;;;20.50;99.90;;;;;;5068571;28;20203;-70
2023/06/11 06:09:39;;;;;;;5.95;2.92;;;20.60;99.90;;;;;;5068932;28;20127;-69
2023/06/11 06:12:06;;;;;;;4.55;3.08;;;20.70;99.90;;;;;;5068610;28;20044;-68
2023/06/11 06:14:32;;;;;;;6.00;3.40;;;20.80;99.90;;;;;;5068437;28;20040;-66
2023/06/11 06:16:58;;;;;;;7.07;3.35;;;20.90;99.90;;;;;;5068473;28;20093;-66
2023/06/11 06:19:24;;;;;;;4.18;3.10;;;21.00;99.90;;;;;;5068629;28;20063;-67
2023/06/11 06:21:50;;;;;;;6.40;4.05;;;21.10;99.90;;;;;;5067792;28;20036;-67
2023/06/11 06:24:16;;;;;;;6.47;3.47;;;21.30;99.90;;;;;;5068805;28;20047;-66
2023/06/11 06:26:42;;;;;;;5.93;2.85;;;21.40;99.90;;;;;;5068243;28;20527;-68
2023/06/11 06:29:08;;;;;;;4.75;3.28;;;21.50;99.90;;;;;;5068769;28;20496;-70
2023/06/11 06:31:36;;;;;;;4.95;3.17;;;21.70;99.90;;;;;;5068191;28;20116;-67
2023/06/11 06:34:02;;;;;;;4.28;3.08;;;21.90;99.90;;;;;;5049462;28;20036;-68
2023/06/11 06:36:29;;;;;;;4.28;3.03;;;22.00;99.90;;;;;;5066287;28;20115;-68
2023/06/11 06:38:55;;;;;;;4.22;2.72;;;22.20;99.90;;;;;;5066873;28;20515;-69
2023/06/11 06:41:21;;;;;;;5.57;2.95;;;22.40;99.90;;;;;;5068139;28;20036;-67
2023/06/11 06:43:47;;;;;;;6.18;3.92;;;22.50;99.90;;;;;;5066927;28;20079;-67
2023/06/11 06:46:13;;;;;;;5.57;2.80;;;22.60;99.90;;;;;;5066938;28;20140;-69
2023/06/11 06:48:39;;;;;;;6.28;2.92;;;22.80;99.90;;;;;;5067576;28;20451;-67
2023/06/11 06:51:04;;;;;;;5.82;2.75;;;23.00;99.90;;;;;;5067898;28;20057;-68
2023/06/11 06:53:30;;;;;;;7.38;3.10;;;23.20;99.90;;;;;;5067604;28;20132;-66
2023/06/11 06:55:58;;;;;;;4.57;3.40;;;23.30;99.90;;;;;;5067835;28;20049;-67
2023/06/11 06:58:24;;;;;;;6.85;3.40;;;23.50;99.90;;;;;;5066769;28;20045;-68
2023/06/11 07:00:50;;;;;;;5.30;3.15;;;23.70;99.90;;;;;;5068897;28;20043;-66
2023/06/11 07:03:16;;;;;;;5.53;3.25;;;23.80;99.90;;;;;;5068579;28;20141;-67
2023/06/11 07:05:44;;;;;;;6.82;3.00;;;23.90;99.90;;;;;;5068398;28;20044;-67
2023/06/11 07:08:13;;;;;;;6.15;2.88;;;24.00;99.90;;;;;;5067350;28;20047;-66
2023/06/11 07:10:48;;;;;;;4.22;2.90;;;24.20;99.90;;;;;;5068258;28;20051;-66
2023/06/11 07:13:15;;;;;;;4.50;3.20;;;24.50;99.90;;;;;;5067566;28;20487;-66
2023/06/11 07:15:41;;;;;;;4.13;2.65;;;24.70;99.90;;;;;;5067338;28;20053;-66
2023/06/11 07:18:07;;;;;;;7.65;3.30;;;24.90;99.90;;;;;;5066740;28;20037;-66
2023/06/11 07:20:32;;;;;;;4.38;2.83;;;25.10;99.90;;;;;;5050770;28;20416;-67
2023/06/11 07:23:01;;;;;;;4.00;2.80;;;25.30;99.90;;;;;;5067301;28;20366;-67
2023/06/11 07:25:28;;;;;;;5.43;2.77;;;25.40;99.90;;;;;;5066553;28;20044;-68
2023/06/11 07:28:01;;;;;;;5.35;2.90;;;25.30;99.90;;;;;;5050639;28;20283;-66
2023/06/11 07:30:31;;;;;;;10.27;3.00;;;25.40;99.30;;;;;;5068841;28;20040;-68
2023/06/11 07:32:58;;;;;;;3.72;2.50;;;25.40;99.80;;;;;;5066453;28;20040;-68
2023/06/11 07:35:25;;;;;;;4.40;2.72;;;25.60;99.60;;;;;;5067603;28;20135;-66
2023/06/11 07:37:51;;;;;;;5.07;3.08;;;25.70;99.40;;;;;;5053967;28;20109;-66
2023/06/11 07:40:18;;;;;;;4.68;3.30;;;25.90;99.40;;;;;;5069989;28;20043;-67
2023/06/11 07:42:45;;;;;;;3.88;2.33;;;26.10;99.20;;;;;;5071965;28;20435;-66
2023/06/11 07:45:14;;;;;;;4.82;3.05;;;26.20;98.60;;;;;;5053875;28;20050;-66
2023/06/11 07:47:41;;;;;;;4.07;2.72;;;26.40;98.70;;;;;;5071358;28;20401;-66
2023/06/11 07:50:08;;;;;;;3.90;2.95;;;26.50;98.30;;;;;;5071632;28;20080;-66
2023/06/11 07:52:35;;;;;;;3.38;2.47;;;26.70;98.10;;;;;;5053435;28;20040;-68
2023/06/11 07:55:02;;;;;;;3.38;2.47;;;26.90;97.50;;;;;;5071844;28;20098;-66
2023/06/11 07:57:27;;;;;;;4.20;2.25;;;27.00;97.50;;;;;;5071525;28;20033;-66
2023/06/11 07:59:53;;;;;;;4.57;2.92;;;27.20;97.50;;;;;;5070094;28;20082;-66
2023/06/11 08:02:20;;;;;;;3.30;2.45;;;27.40;97.30;;;;;;5053610;28;20040;-67
2023/06/11 08:04:46;;;;;;;4.82;2.47;;;27.50;96.50;;;;;;5071433;28;20056;-66
2023/06/11 08:07:12;;;;;;;8.35;2.63;;;27.50;95.20;;;;;;5071060;28;20134;-67
2023/06/11 08:09:40;;;;;;;5.57;2.70;;;27.50;95.20;;;;;;5070432;28;20071;-66
2023/06/11 08:12:11;;;;;;;3.50;2.72;;;27.50;94.70;;;;;;5053657;28;20093;-66
2023/06/11 08:14:37;;;;;;;3.85;2.67;;;27.50;94.70;;;;;;5052512;28;20040;-66
2023/06/11 08:17:03;;;;;;;5.07;3.30;;;27.60;94.60;;;;;;5071745;28;20039;-66
2023/06/11 08:19:29;;;;;;;4.55;2.38;;;27.70;94.50;;;;;;5070115;28;20033;-65
2023/06/11 08:21:55;;;;;;;3.20;2.50;;;27.80;94.10;;;;;;5052640;28;20064;-68
2023/06/11 08:24:22;;;;;;;4.18;2.80;;;27.90;93.60;;;;;;5070036;28;20041;-66
2023/06/11 08:26:48;;;;;;;4.80;2.58;;;27.90;93.80;;;;;;5069704;28;20076;-66
2023/06/11 08:29:15;;;;;;;5.20;2.60;;;28.10;93.50;;;;;;5052709;28;20396;-68
2023/06/11 08:31:41;;;;;;;5.22;2.90;;;28.20;93.30;;;;;;5070270;28;20040;-65
2023/06/11 08:34:07;;;;;;;3.00;2.38;;;28.30;93.10;;;;;;5069945;28;20447;-66
2023/06/11 08:36:33;;;;;;;6.28;2.97;;;28.40;92.80;;;;;;5069214;28;20044;-65
2023/06/11 08:39:00;;;;;;;2.90;2.00;;;28.50;92.60;;;;;;5069675;28;20066;-67
2023/06/11 08:41:28;;;;;;;4.05;2.78;;;28.60;92.70;;;;;;5070716;28;20504;-66
2023/06/11 08:43:55;;;;;;;;;;;28.70;92.50;;;;;;5070643;28;20048;-67
2023/06/11 08:46:23;;;;;;;3.78;2.72;;;28.70;90.30;;;;;;5070529;28;19920;-66
2023/06/11 08:48:58;;;;;;;2.88;2.17;;;28.70;91.90;;;;;;5067842;28;20496;-66
2023/06/11 08:51:27;;;;;;;4.68;2.83;;;28.70;91.00;;;;;;5069192;28;20061;-66
2023/06/11 08:53:53;;;;;;;5.20;2.92;;;28.70;91.40;;;;;;5070454;28;20577;-66
2023/06/11 08:56:19;;;;;;;6.40;2.58;;;28.90;91.60;;;;;;5068375;28;20042;-66
2023/06/11 08:58:47;;;;;;;3.83;2.40;;;29.10;91.60;;;;;;5069104;28;20170;-66
2023/06/11 09:01:13;;;;;;;4.32;2.47;;;29.20;91.00;;;;;;5052997;28;20377;-65
2023/06/11 09:03:39;;;;;;;3.75;2.33;;;29.30;90.80;;;;;;5068637;28;20043;-67
2023/06/11 09:06:06;;;;;;;4.20;3.00;;;29.40;90.70;;;;;;5069161;28;20040;-68
2023/06/11 09:08:32;;;;;;;3.50;2.42;;;29.40;90.20;;;;;;5069910;28;20032;-69
2023/06/11 09:10:57;;;;;;;3.58;2.47;;;29.30;90.00;;;;;;5069257;28;20515;-68
2023/06/11 09:13:27;;;;;;;3.90;2.85;;;29.40;89.00;;;;;;5069543;28;20076;-66
2023/06/11 09:15:55;;;;;;;3.97;2.70;;;29.40;88.60;;;;;;5050480;28;20041;-66
2023/06/11 09:18:28;;;;;;;3.38;2.63;;;29.50;88.80;;;;;;5049796;28;20045;-65
2023/06/11 09:20:55;;;;;;;3.65;2.42;;;29.50;87.80;;;;;;5068584;28;20040;-65
2023/06/11 09:23:37;;;;;;;4.05;2.95;;;29.70;89.30;;;;;;5067778;28;20071;-66
2023/06/11 09:26:03;;;;;;;2.95;2.05;;;29.90;88.20;;;;;;5068020;28;20048;-66
2023/06/11 09:28:37;;;;;;;4.10;2.45;;;30.10;89.20;;;;;;5069787;28;20052;-65
2023/06/11 09:31:04;;;;;;;3.47;2.60;;;30.30;89.10;;;;;;5069135;28;20139;-68
2023/06/11 09:33:31;;;;;;;3.45;2.28;;;30.40;87.70;;;;;;5068918;28;20392;-65
2023/06/11 09:36:00;;;;;;;3.72;2.20;;;30.50;87.90;;;;;;5068344;28;20050;-66
2023/06/11 09:38:27;;;;;;;4.53;2.63;;;30.70;87.80;;;;;;5067705;28;20485;-65
2023/06/11 09:40:57;;;;;;;4.65;2.47;;;30.80;85.90;;;;;;5068248;28;20500;-69
2023/06/11 09:43:24;;;;;;;5.15;2.13;;;30.80;84.20;;;;;;5068334;28;20036;-65
2023/06/11 09:45:55;;;;;;;3.60;2.80;;;30.60;84.20;;;;;;5067514;28;20489;-65
2023/06/11 09:48:22;;;;;;;4.43;2.33;;;30.60;84.20;;;;;;5068228;28;20090;-65
2023/06/11 09:50:50;;;;;;;4.07;2.55;;;30.60;84.20;;;;;;5067944;28;20056;-65
2023/06/11 09:53:19;;;;;;;4.60;2.88;;;30.80;84.60;;;;;;5067829;28;20393;-68
2023/06/11 09:55:50;;;;;;;3.97;2.35;;;31.00;82.60;;;;;;5051600;28;20485;-66
2023/06/11 09:58:22;;;;;;;2.85;2.05;;;31.00;83.10;;;;;;5051157;28;20298;-66
2023/06/11 10:00:58;;;;;;;3.28;2.28;;;31.10;82.80;;;;;;5067934;28;20381;-65
2023/06/11 10:03:24;;;;;;;3.15;1.85;;;31.20;82.60;;;;;;5069481;28;20072;-65
2023/06/11 10:05:51;;;;;;;3.75;2.42;;;31.30;82.60;;;;;;5067554;28;20048;-68
2023/06/11 10:08:22;;;;;;;5.07;2.85;;;31.40;81.00;;;;;;5068322;28;20342;-66
2023/06/11 10:10:54;;;;;;;3.05;2.03;;;31.30;80.30;;;;;;5069445;28;20044;-65
2023/06/11 10:13:33;;;;;;;4.50;2.42;;;31.30;80.80;;;;;;5067687;28;20119;-65
2023/06/11 10:16:03;;;;;;;3.63;2.30;;;31.50;79.10;;;;;;5067951;28;20097;-68
2023/06/11 10:18:30;;;;;;;4.72;2.53;;;31.60;79.10;;;;;;5068033;28;20028;-67
2023/06/11 10:21:04;;;;;;;3.17;2.42;;;31.60;78.90;;;;;;5068536;28;20477;-67
2023/06/11 10:23:40;;;;;;;4.40;2.38;;;31.70;78.80;;;;;;5067691;28;20401;-66
2023/06/11 10:26:07;;;;;;;3.53;2.53;;;31.80;79.30;;;;;;5068027;28;20448;-69
2023/06/11 10:28:51;;;;;;;4.45;2.33;;;32.00;77.90;;;;;;5067281;28;20047;-66
2023/06/11 10:31:35;;;;;;;2.72;1.75;;;31.90;74.30;;;;;;5067956;28;20115;-66
2023/06/11 10:34:04;;;;;;;2.15;1.70;;;31.90;76.60;;;;;;5050211;28;20042;-68
2023/06/11 10:36:40;;;;;;;3.90;2.92;;;31.90;75.90;;;;;;5067701;28;20119;-68
2023/06/11 10:39:20;;;;;;;4.03;2.20;;;31.90;74.50;;;;;;5067557;28;20041;-69
2023/06/11 10:41:46;;;;;;;3.25;1.73;;;31.90;74.00;;;;;;5068550;28;20036;-67
2023/06/11 10:44:14;;;;;;;3.80;2.25;;;31.70;74.10;;;;;;5050754;28;20512;-68
2023/06/11 10:46:44;;;;;;;;;;;31.70;73.80;;;;;;5068314;28;20040;-65
2023/06/11 10:49:14;;;;;;;2.97;1.85;;;31.60;73.30;;;;;;5068057;28;19966;-67
2023/06/11 10:51:41;;;;;;;3.55;2.10;;;31.70;74.00;;;;;;5050666;28;20381;-68
2023/06/11 10:54:07;;;;;;;2.17;1.52;;;31.90;74.50;;;;;;5068899;28;20041;-67
2023/06/11 10:56:38;;;;;;;2.75;2.10;;;32.00;74.00;;;;;;5066586;28;20110;-65
2023/06/11 10:59:10;;;;;;;4.30;2.72;;;32.00;73.60;;;;;;5067355;28;20045;-66
2023/06/11 11:01:36;;;;;;;3.00;2.20;;;32.10;73.10;;;;;;5066943;28;20063;-69
2023/06/11 11:04:03;;;;;;;4.93;2.10;;;31.80;72.30;;;;;;5067513;28;20048;-67
2023/06/11 11:06:30;;;;;;;2.95;2.30;;;31.60;72.70;;;;;;5067194;28;20067;-67
2023/06/11 11:08:56;;;;;;;4.60;1.63;;;31.60;73.50;;;;;;5068290;28;20052;-66
2023/06/11 11:11:23;;;;;;;3.70;2.10;;;31.80;74.10;;;;;;5069514;28;20089;-66
2023/06/11 11:13:50;;;;;;;3.55;2.13;;;32.00;73.30;;;;;;5072597;28;20780;-68
2023/06/11 11:16:18;;;;;;;3.63;2.08;;;31.90;71.90;;;;;;5071270;28;20040;-67
2023/06/11 11:18:46;;;;;;;3.53;2.45;;;31.90;71.20;;;;;;5072681;28;20036;-68
2023/06/11 11:21:12;;;;;;;3.63;2.20;;;31.90;70.80;;;;;;5072706;28;20043;-65
2023/06/11 11:23:38;;;;;;;3.80;1.98;;;31.80;70.80;;;;;;5071531;28;20036;-65
2023/06/11 11:26:04;;;;;;;3.22;2.13;;;31.70;70.50;;;;;;5071038;28;20173;-66
2023/06/11 11:28:34;;;;;;;2.63;2.00;;;31.60;69.80;;;;;;5071067;28;20040;-65
2023/06/11 11:31:01;;;;;;;2.65;1.80;;;31.50;71.00;;;;;;5053822;28;20370;-65
2023/06/11 11:33:28;;;;;;;3.72;2.17;;;31.60;71.20;;;;;;5072184;28;20032;-65
2023/06/11 11:35:54;;;;;;;3.90;1.60;;;31.90;69.60;;;;;;5071971;28;20102;-66
2023/06/11 11:38:21;;;;;;;2.33;1.45;;;32.10;69.70;;;;;;5071289;28;20119;-67
2023/06/11 11:40:57;;;;;;;4.43;1.90;;;32.40;68.80;;;;;;5072186;28;20040;-65
2023/06/11 11:43:23;;;;;;;3.63;1.80;;;32.40;66.20;;;;;;5071109;28;20040;-65
2023/06/11 11:45:49;;;;;;;2.60;1.92;;;32.30;67.20;;;;;;5053555;28;20378;-67
2023/06/11 11:48:15;;;;;;;2.58;1.90;;;32.30;67.30;;;;;;5070881;28;20396;-66
2023/06/11 11:50:41;;;;;;;2.90;1.80;;;32.30;66.60;;;;;;5053228;28;20416;-69
2023/06/11 11:53:13;;;;;;;2.30;1.65;;;32.10;66.80;;;;;;5071890;28;20048;-68
2023/06/11 11:55:41;;;;;;;2.53;1.98;;;31.70;65.40;;;;;;5070265;28;20047;-67
2023/06/11 11:58:12;;;;;;;2.45;1.75;;;31.60;64.90;;;;;;5069782;28;20485;-67
2023/06/11 12:00:51;;;;;;;3.85;2.08;;;31.50;62.70;;;;;;5070056;28;20044;-66
2023/06/11 12:03:17;;;;;;;;;;;31.50;61.80;;;;;;5070467;28;20037;-67
2023/06/11 12:05:43;;;;;;;2.55;1.40;;;31.40;58.70;;;;;;5070618;28;19977;-69
2023/06/11 12:08:09;;;;;;;2.35;1.75;;;31.30;60.30;;;;;;5070142;28;20040;-64
2023/06/11 12:10:35;;;;;;;3.05;1.58;;;31.30;59.60;;;;;;5071447;28;20079;-67
2023/06/11 12:13:01;;;;;;;2.40;1.42;;;31.40;60.00;;;;;;5069421;28;20043;-69
2023/06/11 12:15:28;;;;;;;2.97;1.80;;;31.50;59.80;;;;;;5069276;28;20554;-65
2023/06/11 12:17:54;;;;;;;2.40;1.73;;;31.50;57.90;;;;;;5070125;28;20040;-67
2023/06/11 12:20:23;;;;;;;3.40;2.22;;;31.40;58.50;;;;;;5069578;28;20064;-67
2023/06/11 12:22:49;;;;;;;5.95;2.17;;;31.30;56.90;;;;;;5069808;28;20072;-68
2023/06/11 12:25:15;;;;;;;2.55;1.83;;;31.40;57.80;;;;;;5068994;28;20084;-66
2023/06/11 12:27:43;;;;;;;2.92;1.85;;;31.40;57.60;;;;;;5070486;28;20405;-66
2023/06/11 12:30:10;;;;;;;2.83;1.70;;;31.40;57.70;;;;;;5069868;28;20086;-68
2023/06/11 12:32:35;;;;;;;2.25;1.80;;;31.40;56.00;;;;;;5069203;28;20130;-66
2023/06/11 12:35:02;;;;;;;4.90;1.83;;;31.20;55.60;;;;;;5069357;28;20040;-64
2023/06/11 12:37:28;;;;;;;4.32;1.75;;;31.10;55.90;;;;;;5069697;28;20484;-66
2023/06/11 12:39:54;;;;;;;2.75;1.73;;;31.10;56.60;;;;;;5070661;28;20058;-70
2023/06/11 12:42:21;;;;;;;3.20;1.90;;;31.20;56.70;;;;;;5070579;28;20112;-68
2023/06/11 12:44:47;;;;;;;2.20;1.58;;;31.30;56.30;;;;;;5069616;28;20186;-65
2023/06/11 12:47:14;;;;;;;3.58;1.95;;;31.30;55.30;;;;;;5068885;28;20044;-69
2023/06/11 12:49:40;;;;;;;3.08;1.85;;;31.30;54.60;;;;;;5069117;28;20071;-67